createdAt,value
2022-12-04T00:00:44.371Z,60.77
2022-12-04T00:03:10.894Z,64.77
2022-12-04T00:05:38.129Z,64.07
2022-12-04T00:08:09.642Z,68.40
2022-12-04T00:10:53.074Z,62.30
2022-12-04T00:13:23.172Z,59.83
2022-12-04T00:15:50.469Z,62.73
2022-12-04T00:18:17.063Z,63.07
2022-12-04T00:20:45.189Z,57.90
2022-12-04T00:23:12.480Z,62.87
2022-12-04T00:25:41.496Z,65.40
2022-12-04T00:28:13.401Z,56.93
2022-12-04T00:30:46.197Z,62.60
2022-12-04T00:33:13.883Z,59.77
2022-12-04T00:35:42.571Z,64.83
2022-12-04T00:38:10.589Z,61.20
2022-12-04T00:40:37.580Z,63.83
2022-12-04T00:43:04.905Z,60.17
2022-12-04T00:45:33.155Z,61.27
2022-12-04T00:48:00.744Z,63.33
2022-12-04T00:50:27.387Z,61.53
2022-12-04T00:52:54.469Z,62.30
2022-12-04T00:55:21.431Z,58.33
2022-12-04T00:57:49.222Z,62.50
2022-12-04T01:00:16.336Z,60.27
2022-12-04T01:02:43.862Z,58.27
2022-12-04T01:05:16.378Z,57.67
2022-12-04T01:07:44.476Z,62.80
2022-12-04T01:10:14.682Z,57.47
2022-12-04T01:12:42.390Z,56.27
2022-12-04T01:15:11.717Z,59.47
2022-12-04T01:17:39.326Z,59.50
2022-12-04T01:20:06.795Z,60.23
2022-12-04T01:22:35.209Z,58.63
2022-12-04T01:25:03.101Z,59.40
2022-12-04T01:27:31.551Z,57.50
2022-12-04T01:29:59.601Z,58.47
2022-12-04T01:32:28.158Z,58.47
2022-12-04T01:34:57.942Z,60.50
2022-12-04T01:37:26.916Z,58.90
2022-12-04T01:39:54.669Z,57.77
2022-12-04T01:42:24.354Z,59.20
2022-12-04T01:45:29.634Z,60.73
2022-12-04T01:48:00.110Z,62.80
2022-12-04T01:50:27.576Z,58.07
2022-12-04T01:52:54.932Z,64.70
2022-12-04T01:55:24.745Z,63.43
2022-12-04T01:57:53.479Z,57.13
2022-12-04T02:00:21.723Z,58.27
2022-12-04T02:02:50.999Z,65.93
2022-12-04T02:05:24.438Z,59.80
2022-12-04T02:07:54.084Z,59.27
2022-12-04T02:10:28.790Z,58.37
2022-12-04T02:12:57.427Z,59.27
2022-12-04T02:15:34.167Z,61.87
2022-12-04T02:18:07.728Z,64.87
2022-12-04T02:20:58.158Z,64.30
2022-12-04T02:23:48.616Z,64.33
2022-12-04T02:26:30.171Z,56.83
2022-12-04T02:29:16.253Z,65.00
2022-12-04T02:32:08.773Z,67.87
2022-12-04T02:34:42.693Z,63.87
2022-12-04T02:37:42.231Z,63.10
2022-12-04T02:40:17.884Z,65.20
2022-12-04T02:43:03.494Z,70.47
2022-12-04T02:45:37.086Z,67.43
2022-12-04T02:48:08.587Z,61.03
2022-12-04T02:50:39.816Z,63.50
2022-12-04T02:53:18.621Z,60.00
2022-12-04T02:55:51.526Z,62.80
2022-12-04T02:58:35.871Z,66.57
2022-12-04T03:01:19.975Z,66.27
2022-12-04T03:03:53.024Z,68.40
2022-12-04T03:06:20.995Z,66.13
2022-12-04T03:08:55.847Z,70.03
2022-12-04T03:11:23.794Z,69.60
2022-12-04T03:13:56.273Z,67.30
2022-12-04T03:16:28.486Z,65.63
2022-12-04T03:18:56.753Z,62.93
2022-12-04T03:21:33.430Z,63.53
2022-12-04T03:24:11.556Z,65.57
2022-12-04T03:26:42.430Z,68.47
2022-12-04T03:29:23.684Z,62.53
2022-12-04T03:32:02.874Z,67.03
2022-12-04T03:34:42.606Z,70.87
2022-12-04T03:37:16.968Z,67.00
2022-12-04T03:39:52.788Z,61.30
2022-12-04T03:42:25.229Z,65.27
2022-12-04T03:44:58.903Z,68.93
2022-12-04T03:47:46.907Z,67.13
2022-12-04T03:50:30.588Z,67.43
2022-12-04T03:53:05.955Z,74.07
2022-12-04T03:55:41.857Z,66.93
2022-12-04T03:58:13.942Z,68.77
2022-12-04T04:00:43.529Z,69.57
2022-12-04T04:03:19.854Z,68.67
2022-12-04T04:05:51.737Z,65.53
2022-12-04T04:08:26.703Z,65.63
2022-12-04T04:11:06.589Z,66.20
2022-12-04T04:14:01.545Z,67.53
2022-12-04T04:16:49.069Z,65.30
2022-12-04T04:19:37.248Z,70.53
2022-12-04T04:22:26.476Z,66.43
2022-12-04T04:25:03.115Z,66.83
2022-12-04T04:27:30.995Z,65.13
2022-12-04T04:30:01.651Z,67.93
2022-12-04T04:32:32.763Z,69.37
2022-12-04T04:35:09.395Z,70.07
2022-12-04T04:37:59.872Z,67.70
2022-12-04T04:40:53.112Z,62.83
2022-12-04T04:43:34.901Z,70.43
2022-12-04T04:46:26.820Z,73.87
2022-12-04T04:48:59.215Z,66.07
2022-12-04T04:51:27.238Z,65.57
2022-12-04T04:53:58.067Z,66.43
2022-12-04T04:56:27.087Z,65.63
2022-12-04T04:58:57.164Z,64.37
2022-12-04T05:01:28.546Z,62.67
2022-12-04T05:03:57.623Z,66.77
2022-12-04T05:06:26.269Z,58.57
2022-12-04T05:08:54.302Z,61.53
2022-12-04T05:11:24.598Z,65.83
2022-12-04T05:13:53.243Z,69.53
2022-12-04T05:16:20.916Z,66.93
2022-12-04T05:19:07.635Z,62.87
2022-12-04T05:21:35.426Z,59.07
2022-12-04T05:24:04.577Z,62.47
2022-12-04T05:26:31.636Z,60.63
2022-12-04T05:28:58.330Z,62.93
2022-12-04T05:31:26.954Z,59.17
2022-12-04T05:33:54.567Z,62.23
2022-12-04T05:36:22.112Z,56.60
2022-12-04T05:38:49.795Z,63.20
2022-12-04T05:41:17.087Z,64.60
2022-12-04T05:43:44.047Z,61.40
2022-12-04T05:46:11.388Z,59.57
2022-12-04T05:48:38.222Z,61.67
2022-12-04T05:51:11.024Z,63.20
2022-12-04T05:53:41.807Z,55.40
2022-12-04T05:56:09.599Z,59.70
2022-12-04T05:58:37.919Z,61.23
2022-12-04T06:01:13.955Z,54.87
2022-12-04T06:03:41.080Z,57.37
2022-12-04T06:06:23.173Z,56.57
2022-12-04T06:08:52.110Z,62.17
2022-12-04T06:11:25.001Z,58.80
2022-12-04T06:13:53.161Z,69.03
2022-12-04T06:16:28.882Z,64.50
2022-12-04T06:18:59.023Z,56.63
2022-12-04T06:21:27.695Z,50.70
2022-12-04T06:23:54.898Z,56.80
2022-12-04T06:26:22.403Z,61.13
2022-12-04T06:28:49.459Z,65.20
2022-12-04T06:31:17.066Z,61.30
2022-12-04T06:33:43.653Z,63.40
2022-12-04T06:36:21.175Z,61.50
2022-12-04T06:38:50.001Z,56.43
2022-12-04T06:41:19.221Z,60.53
2022-12-04T06:43:46.885Z,61.30
2022-12-04T06:46:16.331Z,63.90
2022-12-04T06:48:43.137Z,61.97
2022-12-04T06:51:33.644Z,64.83
2022-12-04T06:54:01.060Z,60.10
2022-12-04T06:56:30.717Z,58.57
2022-12-04T06:58:59.578Z,57.10
2022-12-04T07:01:29.211Z,62.47
2022-12-04T07:03:57.029Z,63.33
2022-12-04T07:06:32.357Z,60.10
2022-12-04T07:09:05.248Z,54.23
2022-12-04T07:11:32.608Z,61.43
2022-12-04T07:13:59.454Z,63.53
2022-12-04T07:16:27.191Z,57.40
2022-12-04T07:18:54.815Z,60.30
2022-12-04T07:21:24.163Z,59.83
2022-12-04T07:23:53.227Z,58.50
2022-12-04T07:26:20.244Z,63.07
2022-12-04T07:28:47.652Z,59.87
2022-12-04T07:31:16.958Z,58.80
2022-12-04T07:33:43.863Z,61.97
2022-12-04T07:36:14.515Z,66.13
2022-12-04T07:38:42.206Z,63.83
2022-12-04T07:41:10.717Z,68.90
2022-12-04T07:43:37.341Z,57.37
2022-12-04T07:46:10.181Z,59.97
2022-12-04T07:48:37.795Z,61.97
2022-12-04T07:51:16.737Z,63.47
2022-12-04T07:53:44.701Z,60.50
2022-12-04T07:56:13.525Z,62.60
2022-12-04T07:58:42.042Z,65.63
2022-12-04T08:01:17.389Z,59.57
2022-12-04T08:03:48.634Z,62.80
2022-12-04T08:06:17.501Z,61.67
2022-12-04T08:08:44.463Z,58.73
2022-12-04T08:11:13.495Z,61.93
2022-12-04T08:13:40.400Z,61.10
2022-12-04T08:16:08.611Z,60.33
2022-12-04T08:18:35.983Z,60.23
2022-12-04T08:21:06.014Z,65.87
2022-12-04T08:23:33.294Z,61.43
2022-12-04T08:26:00.614Z,60.53
2022-12-04T08:28:27.130Z,51.23
2022-12-04T08:30:53.778Z,55.07
2022-12-04T08:33:20.342Z,57.13
2022-12-04T08:35:46.764Z,57.53
2022-12-04T08:38:13.989Z,61.23
2022-12-04T08:40:40.708Z,59.77
2022-12-04T08:43:07.572Z,60.37
2022-12-04T08:45:34.296Z,55.60
2022-12-04T08:48:00.776Z,55.90
2022-12-04T08:50:27.336Z,54.83
2022-12-04T08:52:53.820Z,56.30
2022-12-04T08:55:20.303Z,58.80
2022-12-04T08:57:46.695Z,57.77
2022-12-04T09:00:15.401Z,56.33
2022-12-04T09:02:42.202Z,56.53
2022-12-04T09:05:08.929Z,56.83
2022-12-04T09:07:35.474Z,54.47
2022-12-04T09:10:02.060Z,59.13
2022-12-04T09:12:28.749Z,54.53
2022-12-04T09:14:55.324Z,53.33
2022-12-04T09:17:21.770Z,58.63
2022-12-04T09:19:48.198Z,58.20
2022-12-04T09:22:14.834Z,58.10
2022-12-04T09:24:41.351Z,58.03
2022-12-04T09:27:14.319Z,59.73
2022-12-04T09:29:41.305Z,60.40
2022-12-04T09:32:07.712Z,61.17
2022-12-04T09:34:34.421Z,61.27
2022-12-04T09:37:01.016Z,58.47
2022-12-04T09:39:27.470Z,58.53
2022-12-04T09:42:08.657Z,63.37
2022-12-04T09:44:39.542Z,55.73
2022-12-04T09:47:11.991Z,57.83
2022-12-04T09:49:42.377Z,61.83
2022-12-04T09:52:26.533Z,54.50
2022-12-04T09:54:54.025Z,58.30
2022-12-04T09:57:42.498Z,55.63
2022-12-04T10:00:14.345Z,56.70
2022-12-04T10:02:43.237Z,57.67
2022-12-04T10:05:19.967Z,55.23
2022-12-04T10:08:13.048Z,56.67
2022-12-04T10:10:42.351Z,58.90
2022-12-04T10:13:24.155Z,54.83
2022-12-04T10:16:01.116Z,61.23
2022-12-04T10:18:41.300Z,61.77
2022-12-04T10:21:23.043Z,57.23
2022-12-04T10:24:10.850Z,62.47
2022-12-04T10:26:40.696Z,65.23
2022-12-04T10:29:12.314Z,55.83
2022-12-04T10:31:40.411Z,58.33
2022-12-04T10:34:13.758Z,59.43
2022-12-04T10:36:41.883Z,53.57
2022-12-04T10:39:21.671Z,58.70
2022-12-04T10:42:03.534Z,65.77
2022-12-04T10:44:30.062Z,63.13
2022-12-04T10:46:59.622Z,60.30
2022-12-04T10:49:28.758Z,54.53
2022-12-04T10:51:55.421Z,58.90
2022-12-04T10:54:32.700Z,60.53
2022-12-04T10:57:10.177Z,62.23
2022-12-04T11:00:00.612Z,53.53
2022-12-04T11:02:29.457Z,57.93
2022-12-04T11:05:00.275Z,55.13
2022-12-04T11:07:28.545Z,58.27
2022-12-04T11:10:01.576Z,65.33
2022-12-04T11:12:28.163Z,56.57
2022-12-04T11:15:06.646Z,59.83
2022-12-04T11:17:33.500Z,58.73
2022-12-04T11:20:13.042Z,63.97
2022-12-04T11:22:58.291Z,63.87
2022-12-04T11:25:32.461Z,58.43
2022-12-04T11:28:01.866Z,55.97
2022-12-04T11:30:34.639Z,62.70
2022-12-04T11:33:01.929Z,61.53
2022-12-04T11:35:29.550Z,68.47
2022-12-04T11:38:14.967Z,70.33
2022-12-04T11:40:52.568Z,63.47
2022-12-04T11:43:26.330Z,60.80
2022-12-04T11:46:00.180Z,64.47
2022-12-04T11:48:29.471Z,62.53
2022-12-04T11:51:20.793Z,59.67
2022-12-04T11:53:54.159Z,58.77
2022-12-04T11:56:23.656Z,61.80
2022-12-04T11:59:18.098Z,55.07
2022-12-04T12:02:26.241Z,53.23
2022-12-04T12:05:15.186Z,49.60
2022-12-04T12:08:16.297Z,61.60
2022-12-04T12:11:01.579Z,48.90
2022-12-04T12:14:06.714Z,56.00
2022-12-04T12:16:58.845Z,52.17
2022-12-04T12:19:51.314Z,49.27
2022-12-04T12:22:48.789Z,49.73
2022-12-04T12:25:20.044Z,47.33
2022-12-04T12:28:19.101Z,52.63
2022-12-04T12:31:02.477Z,47.67
2022-12-04T12:33:37.191Z,52.57
2022-12-04T12:36:07.075Z,54.07
2022-12-04T12:38:44.704Z,54.43
2022-12-04T12:41:14.853Z,47.03
2022-12-04T12:43:45.158Z,51.63
2022-12-04T12:46:31.511Z,50.67
2022-12-04T12:49:02.713Z,42.67
2022-12-04T12:51:35.571Z,50.00
2022-12-04T12:54:25.361Z,53.10
2022-12-04T12:56:56.831Z,50.33
2022-12-04T12:59:26.782Z,58.63
2022-12-04T13:02:01.465Z,51.57
2022-12-04T13:04:37.297Z,57.07
2022-12-04T13:07:20.647Z,54.07
2022-12-04T13:09:58.116Z,50.37
2022-12-04T13:12:25.217Z,58.43
2022-12-04T13:14:51.980Z,54.73
2022-12-04T13:17:31.977Z,53.90
2022-12-04T13:19:59.556Z,51.87
2022-12-04T13:22:31.848Z,57.33
2022-12-04T13:25:21.540Z,56.10
2022-12-04T13:28:06.677Z,54.47
2022-12-04T13:30:48.889Z,60.80
2022-12-04T13:33:22.678Z,59.17
2022-12-04T13:36:11.099Z,53.77
2022-12-04T13:38:59.393Z,60.73
2022-12-04T13:41:27.230Z,52.53
2022-12-04T13:43:54.159Z,50.23
2022-12-04T13:46:41.165Z,59.13
2022-12-04T13:49:08.970Z,56.87
2022-12-04T13:51:40.406Z,58.60
2022-12-04T13:54:12.745Z,62.87
2022-12-04T13:56:44.438Z,61.93
2022-12-04T13:59:23.138Z,57.03
2022-12-04T14:01:52.276Z,57.90
2022-12-04T14:04:27.486Z,55.13
2022-12-04T14:06:56.133Z,54.03
2022-12-04T14:09:27.909Z,53.20
2022-12-04T14:11:58.731Z,57.20
2022-12-04T14:14:28.222Z,51.77
2022-12-04T14:16:56.876Z,50.73
2022-12-04T14:19:36.128Z,61.70
2022-12-04T14:22:03.192Z,55.03
2022-12-04T14:24:38.385Z,55.17
2022-12-04T14:27:42.206Z,50.93
2022-12-04T14:30:36.461Z,54.80
2022-12-04T14:33:10.376Z,48.87
2022-12-04T14:35:45.577Z,48.37
2022-12-04T14:38:18.786Z,45.97
2022-12-04T14:40:48.630Z,49.67
2022-12-04T14:43:27.353Z,48.80
2022-12-04T14:46:03.514Z,49.83
2022-12-04T14:48:30.032Z,52.07
2022-12-04T14:51:04.473Z,46.93
2022-12-04T14:53:43.713Z,47.37
2022-12-04T14:56:17.837Z,55.00
2022-12-04T14:58:44.559Z,51.03
2022-12-04T15:01:48.650Z,54.97
2022-12-04T15:04:33.111Z,44.67
2022-12-04T15:07:00.836Z,50.77
2022-12-04T15:09:47.324Z,49.90
2022-12-04T15:12:36.372Z,50.27
2022-12-04T15:15:15.323Z,50.73
2022-12-04T15:17:41.723Z,48.93
2022-12-04T15:20:16.246Z,50.53
2022-12-04T15:22:42.833Z,49.93
2022-12-04T15:25:25.375Z,49.63
2022-12-04T15:27:53.999Z,48.77
2022-12-04T15:30:22.048Z,50.07
2022-12-04T15:32:50.707Z,47.40
2022-12-04T15:35:27.428Z,53.40
2022-12-04T15:37:54.905Z,51.60
2022-12-04T15:40:27.340Z,54.10
2022-12-04T15:42:54.558Z,51.77
2022-12-04T15:45:25.259Z,54.70
2022-12-04T15:47:53.901Z,51.40
2022-12-04T15:50:23.502Z,54.33
2022-12-04T15:52:51.260Z,50.77
2022-12-04T15:55:18.961Z,46.87
2022-12-04T15:57:51.686Z,49.33
2022-12-04T16:00:30.334Z,48.53
2022-12-04T16:02:57.649Z,51.97
2022-12-04T16:05:34.873Z,49.57
2022-12-04T16:08:21.528Z,51.10
2022-12-04T16:11:06.678Z,58.87
2022-12-04T16:13:38.530Z,45.70
2022-12-04T16:16:07.807Z,51.40
2022-12-04T16:18:34.669Z,54.27
2022-12-04T16:21:01.193Z,52.50
2022-12-04T16:23:27.988Z,54.43
2022-12-04T16:25:54.456Z,55.17
2022-12-04T16:28:21.018Z,56.40
2022-12-04T16:30:47.778Z,47.47
2022-12-04T16:33:15.878Z,50.03
2022-12-04T16:35:42.521Z,52.93
2022-12-04T16:38:14.422Z,53.80
2022-12-04T16:40:41.027Z,46.80
2022-12-04T16:43:08.651Z,47.70
2022-12-04T16:45:35.445Z,50.57
2022-12-04T16:48:01.903Z,49.67
2022-12-04T16:50:28.443Z,47.83
2022-12-04T16:52:57.605Z,48.87
2022-12-04T16:55:38.685Z,46.27
2022-12-04T16:58:05.663Z,51.87
2022-12-04T17:00:32.239Z,53.20
2022-12-04T17:02:58.756Z,44.93
2022-12-04T17:05:27.403Z,58.33
2022-12-04T17:07:54.374Z,47.93
2022-12-04T17:10:23.957Z,46.00
2022-12-04T17:12:54.286Z,51.40
2022-12-04T17:15:20.816Z,52.00
2022-12-04T17:17:47.268Z,54.50
2022-12-04T17:20:16.353Z,54.03
2022-12-04T17:22:42.963Z,48.80
2022-12-04T17:25:09.921Z,54.80
2022-12-04T17:27:36.822Z,54.13
2022-12-04T17:30:06.242Z,55.30
2022-12-04T17:32:33.656Z,51.10
2022-12-04T17:35:00.129Z,50.87
2022-12-04T17:37:26.746Z,55.43
2022-12-04T17:39:53.262Z,57.43
2022-12-04T17:42:20.304Z,51.97
2022-12-04T17:44:46.907Z,55.23
2022-12-04T17:47:13.624Z,56.27
2022-12-04T17:49:40.076Z,56.20
2022-12-04T17:52:06.668Z,60.13
2022-12-04T17:54:33.599Z,51.03
2022-12-04T17:57:00.113Z,54.77
2022-12-04T17:59:26.697Z,60.03
2022-12-04T18:01:53.211Z,55.87
2022-12-04T18:04:19.897Z,58.80
2022-12-04T18:06:47.060Z,54.93
2022-12-04T18:09:15.808Z,59.07
2022-12-04T18:11:47.002Z,54.87
2022-12-04T18:14:17.836Z,58.53
2022-12-04T18:16:53.671Z,59.83
2022-12-04T18:19:22.541Z,58.13
2022-12-04T18:21:49.544Z,58.53
2022-12-04T18:24:16.420Z,61.67
2022-12-04T18:26:46.192Z,65.87
2022-12-04T18:29:15.007Z,57.20
2022-12-04T18:31:41.997Z,62.53
2022-12-04T18:34:09.105Z,60.47
2022-12-04T18:36:36.736Z,58.37
2022-12-04T18:39:06.399Z,63.30
2022-12-04T18:41:33.021Z,60.63
2022-12-04T18:43:59.456Z,62.67
2022-12-04T18:46:26.102Z,61.47
2022-12-04T18:48:54.337Z,62.00
2022-12-04T18:51:22.901Z,63.80
2022-12-04T18:53:50.453Z,62.03
2022-12-04T18:56:18.244Z,68.20
2022-12-04T18:58:46.575Z,64.80
2022-12-04T19:01:19.029Z,58.93
2022-12-04T19:03:47.032Z,66.17
2022-12-04T19:06:14.195Z,65.77
2022-12-04T19:08:43.187Z,62.37
2022-12-04T19:11:13.143Z,59.73
2022-12-04T19:13:40.124Z,57.37
2022-12-04T19:16:17.093Z,59.40
2022-12-04T19:18:46.965Z,61.40
2022-12-04T19:21:14.613Z,58.53
2022-12-04T19:23:41.664Z,61.10
2022-12-04T19:26:08.338Z,52.93
2022-12-04T19:28:35.573Z,50.10
2022-12-04T19:31:01.990Z,51.67
2022-12-04T19:33:28.830Z,56.20
2022-12-04T19:36:05.667Z,54.33
2022-12-04T19:38:33.730Z,53.40
2022-12-04T19:41:11.370Z,53.73
2022-12-04T19:43:51.903Z,54.37
2022-12-04T19:46:21.373Z,49.97
2022-12-04T19:48:49.984Z,53.90
2022-12-04T19:51:19.392Z,52.00
2022-12-04T19:53:46.192Z,53.40
2022-12-04T19:56:22.325Z,56.70
2022-12-04T19:58:48.734Z,59.17
2022-12-04T20:01:16.866Z,52.73
2022-12-04T20:03:43.545Z,50.90
2022-12-04T20:06:15.062Z,53.40
2022-12-04T20:08:42.136Z,59.40
2022-12-04T20:11:11.781Z,51.87
2022-12-04T20:13:39.688Z,57.43
2022-12-04T20:16:08.434Z,58.40
2022-12-04T20:18:36.957Z,52.30
2022-12-04T20:21:04.991Z,47.47
2022-12-04T20:23:31.449Z,52.17
2022-12-04T20:26:04.046Z,53.73
2022-12-04T20:28:30.526Z,55.67
2022-12-04T20:30:57.655Z,46.57
2022-12-04T20:33:24.250Z,52.20
2022-12-04T20:35:50.968Z,47.50
2022-12-04T20:38:17.427Z,44.10
2022-12-04T20:40:43.871Z,45.43
2022-12-04T20:43:10.311Z,49.93
2022-12-04T20:45:36.743Z,43.77
2022-12-04T20:48:03.500Z,43.80
2022-12-04T20:50:30.104Z,41.13
2022-12-04T20:52:56.536Z,39.43
2022-12-04T20:55:23.032Z,44.57
2022-12-04T20:57:49.918Z,41.13
2022-12-04T21:00:16.692Z,42.47
2022-12-04T21:02:43.536Z,39.30
2022-12-04T21:05:10.091Z,36.77
2022-12-04T21:07:36.827Z,38.33
2022-12-04T21:10:04.025Z,36.20
2022-12-04T21:12:49.260Z,36.83
2022-12-04T21:15:34.305Z,34.67
2022-12-04T21:18:01.803Z,35.90
2022-12-04T21:20:28.345Z,34.60
2022-12-04T21:22:54.776Z,34.63
2022-12-04T21:25:21.312Z,37.53
2022-12-04T21:27:47.807Z,32.07
2022-12-04T21:30:14.621Z,33.73
2022-12-04T21:32:41.105Z,35.63
2022-12-04T21:35:07.931Z,34.07
2022-12-04T21:37:34.615Z,34.30
2022-12-04T21:40:01.415Z,34.53
2022-12-04T21:42:31.040Z,36.10
2022-12-04T21:44:58.840Z,35.17
2022-12-04T21:47:25.707Z,37.33
2022-12-04T21:49:52.155Z,37.73
2022-12-04T21:52:19.384Z,41.13
2022-12-04T21:54:49.561Z,36.00
2022-12-04T21:57:16.077Z,36.70
2022-12-04T21:59:42.567Z,38.63
2022-12-04T22:02:11.435Z,37.17
2022-12-04T22:04:37.908Z,39.73
2022-12-04T22:07:04.370Z,40.87
2022-12-04T22:09:30.779Z,39.40
2022-12-04T22:11:58.810Z,40.87
2022-12-04T22:14:25.259Z,42.67
2022-12-04T22:16:52.412Z,41.57
2022-12-04T22:19:19.123Z,46.27
2022-12-04T22:21:45.660Z,45.37
2022-12-04T22:24:12.277Z,40.17
2022-12-04T22:26:39.004Z,45.13
2022-12-04T22:29:26.977Z,47.00
2022-12-04T22:31:52.297Z,44.70
2022-12-04T22:34:18.766Z,42.20
2022-12-04T22:36:45.410Z,40.40
2022-12-04T22:39:11.831Z,44.93
2022-12-04T22:41:38.760Z,42.07
2022-12-04T22:44:06.014Z,47.23
2022-12-04T22:46:32.739Z,44.27
2022-12-04T22:48:59.969Z,47.70
2022-12-04T22:51:27.402Z,43.13
2022-12-04T22:53:55.594Z,49.00
2022-12-04T22:56:24.476Z,43.67
2022-12-04T22:58:51.403Z,41.30
2022-12-04T23:01:20.169Z,44.03
2022-12-04T23:03:47.638Z,42.67
2022-12-04T23:06:15.162Z,45.70
2022-12-04T23:08:42.715Z,43.57
2022-12-04T23:11:13.113Z,48.73
2022-12-04T23:13:39.991Z,47.97
2022-12-04T23:16:09.778Z,46.70
2022-12-04T23:18:37.291Z,48.27
2022-12-04T23:21:10.067Z,48.60
2022-12-04T23:23:38.196Z,46.50
2022-12-04T23:26:10.027Z,49.10
2022-12-04T23:28:37.059Z,47.17
2022-12-04T23:31:04.305Z,49.63
2022-12-04T23:33:31.759Z,44.87
2022-12-04T23:35:59.668Z,47.03
2022-12-04T23:38:27.215Z,47.10
2022-12-04T23:41:11.123Z,46.93
2022-12-04T23:43:38.168Z,46.47
2022-12-04T23:46:10.674Z,51.20
2022-12-04T23:48:37.895Z,47.30
2022-12-04T23:51:04.662Z,51.60
2022-12-04T23:53:31.251Z,47.77
2022-12-04T23:56:11.453Z,47.03
2022-12-04T23:58:38.567Z,44.73
